Etusivu
METAR-TAF:

METAR-TAF

Lentoasemat :

Raton Municipal Airport (Crews Field)

Raton, New Mexico, Yhdysvallat

Leveyspiiri: 36-44-31N, Pituuspiiri: 104-39-28W, korkeus merenpinnasta: 1935 m

Tämänhetkinen sää

Tämä raportti tehtiin 1 tunti ja 0 minuuttia sitten, kello 00.53 UTC
Tuuli 5 kn lännestä
Lämpötila 12°C
Kosteus 22%
Ilmanpaine 1010 hPa
Näkyvyys: 16.1 km
selkeää

METAR: KRTN 200053Z AUTO 28005KT 10SM CLR 12/M09 A2983 RMK AO2 SLP074 T01171089

Aika: 18:53 (01:53 UTC)


TAF: puuttuu

Säähavainnot ja -ennusteet yli 4000 lentoasemalta (METAR- ja TAF-raportit).

Käytössä olevat sääasemat on merkitty karttaan keltaisilla ja punaisilla pisteillä.

Aseta hiiri pisteen päälle nähdäksesi sääaseman nimen.

Klikkaa sitten nähdäksesi säähavainnot ja -ennusteet.

Kartan vaihtaminen: klikkaa mustalla rastilla varustettuja vihreitä pisteitä, niin voit zoomata sisään; viivalla varustettua vihreää pistettä, niin voit zoomata ulos tai vihreitä nuolia, niin pääset viereisille kartoille.


METAR-TAF: